createdAt,value
2023-03-21T00:01:38.783Z,11.20
2023-03-21T00:04:06.383Z,14.45
2023-03-21T00:06:33.722Z,12.70
2023-03-21T00:09:01.073Z,11.88
2023-03-21T00:11:28.612Z,11.32
2023-03-21T00:14:02.721Z,9.85
2023-03-21T00:16:31.322Z,12.50
2023-03-21T00:19:03.532Z,12.20
2023-03-21T00:21:55.295Z,12.20
2023-03-21T00:24:19.856Z,13.75
2023-03-21T00:26:47.278Z,11.98
2023-03-21T00:29:14.712Z,10.43
2023-03-21T00:31:42.028Z,12.85
2023-03-21T00:36:38.105Z,11.80
2023-03-21T00:39:08.161Z,9.52
2023-03-21T00:41:42.629Z,13.70
2023-03-21T00:44:16.004Z,12.48
2023-03-21T00:46:57.076Z,10.40
2023-03-21T00:49:34.229Z,13.88
2023-03-21T00:52:17.107Z,13.15
2023-03-21T00:54:47.722Z,13.77
2023-03-21T00:57:15.106Z,15.73
2023-03-21T00:59:42.482Z,14.60
2023-03-21T01:02:15.213Z,10.70
2023-03-21T01:04:42.847Z,14.80
2023-03-21T01:07:10.717Z,13.45
2023-03-21T01:09:39.128Z,11.35
2023-03-21T01:12:06.545Z,11.73
2023-03-21T01:14:33.946Z,12.43
2023-03-21T01:17:01.907Z,15.45
2023-03-21T01:19:40.990Z,11.70
2023-03-21T01:22:16.506Z,13.75
2023-03-21T01:24:53.801Z,10.88
2023-03-21T01:27:23.322Z,14.45
2023-03-21T01:29:51.643Z,15.32
2023-03-21T01:32:19.135Z,10.07
2023-03-21T01:34:46.715Z,12.00
2023-03-21T01:37:14.773Z,10.82
2023-03-21T01:39:47.484Z,11.68
2023-03-21T01:42:15.691Z,11.13
2023-03-21T01:44:48.314Z,14.38
2023-03-21T01:47:16.220Z,12.85
2023-03-21T01:49:50.077Z,11.88
2023-03-21T01:52:40.047Z,16.40
2023-03-21T01:55:14.895Z,10.27
2023-03-21T01:58:05.269Z,10.25
2023-03-21T02:00:43.979Z,10.23
2023-03-21T02:03:35.992Z,12.90
2023-03-21T02:06:11.773Z,9.73
2023-03-21T02:08:42.714Z,11.43
2023-03-21T02:11:14.773Z,9.68
2023-03-21T02:13:44.033Z,10.95
2023-03-21T02:16:38.057Z,12.55
2023-03-21T02:19:25.967Z,9.80
2023-03-21T02:22:16.623Z,11.52
2023-03-21T02:25:01.495Z,9.98
2023-03-21T02:27:40.604Z,11.45
2023-03-21T02:30:13.024Z,12.20
2023-03-21T02:32:54.355Z,9.10
2023-03-21T02:35:23.468Z,8.80
2023-03-21T02:38:00.042Z,11.25
2023-03-21T02:40:34.971Z,11.63
2023-03-21T02:43:22.661Z,11.75
2023-03-21T02:46:00.857Z,8.65
2023-03-21T02:48:49.905Z,9.55
2023-03-21T02:51:23.115Z,8.95
2023-03-21T02:54:23.677Z,9.93
2023-03-21T02:56:49.344Z,11.73
2023-03-21T02:59:20.346Z,12.45
2023-03-21T03:01:47.933Z,10.73
2023-03-21T03:04:18.348Z,13.02
2023-03-21T03:07:04.905Z,9.70
2023-03-21T03:09:47.635Z,9.02
2023-03-21T03:12:18.074Z,9.38
2023-03-21T03:15:03.016Z,10.50
2023-03-21T03:17:51.324Z,7.07
2023-03-21T03:20:23.876Z,10.85
2023-03-21T03:22:59.430Z,9.05
2023-03-21T03:25:42.522Z,11.88
2023-03-21T03:28:17.946Z,12.18
2023-03-21T03:31:01.245Z,9.23
2023-03-21T03:33:41.951Z,10.45
2023-03-21T03:36:25.037Z,11.82
2023-03-21T03:39:01.995Z,13.02
2023-03-21T03:42:03.016Z,10.68
2023-03-21T03:44:30.192Z,10.82
2023-03-21T03:47:08.603Z,11.90
2023-03-21T03:49:46.921Z,12.07
2023-03-21T03:52:21.626Z,7.63
2023-03-21T03:54:55.822Z,7.00
2023-03-21T03:57:27.246Z,8.70
2023-03-21T03:59:56.392Z,7.78
2023-03-21T04:02:27.362Z,7.90
2023-03-21T04:04:58.015Z,6.97
2023-03-21T04:07:25.805Z,9.25
2023-03-21T04:09:55.729Z,9.27
2023-03-21T04:12:23.225Z,11.25
2023-03-21T04:15:11.362Z,9.77
2023-03-21T04:17:45.650Z,10.57
2023-03-21T04:20:20.941Z,8.93
2023-03-21T04:22:56.596Z,6.93
2023-03-21T04:25:33.090Z,8.80
2023-03-21T04:28:02.771Z,11.90
2023-03-21T04:30:51.944Z,8.77
2023-03-21T04:33:26.688Z,8.65
2023-03-21T04:35:59.273Z,8.25
2023-03-21T04:38:34.036Z,11.68
2023-03-21T04:41:04.668Z,8.57
2023-03-21T04:43:32.228Z,10.35
2023-03-21T04:45:59.891Z,9.25
2023-03-21T04:48:28.052Z,7.70
2023-03-21T04:50:56.616Z,9.48
2023-03-21T04:53:24.032Z,8.90
2023-03-21T04:55:55.250Z,9.02
2023-03-21T04:58:24.183Z,10.32
2023-03-21T05:00:53.264Z,11.15
2023-03-21T05:03:21.605Z,9.35
2023-03-21T05:05:49.478Z,13.30
2023-03-21T05:08:19.145Z,9.27
2023-03-21T05:10:46.461Z,10.57
2023-03-21T05:13:13.992Z,11.20
2023-03-21T05:15:41.417Z,10.88
2023-03-21T05:18:10.410Z,11.88
2023-03-21T05:20:43.026Z,10.95
2023-03-21T05:23:11.860Z,14.30
2023-03-21T05:25:40.621Z,11.70
2023-03-21T05:28:18.590Z,13.95
2023-03-21T05:30:47.440Z,11.02
2023-03-21T05:33:15.443Z,12.45
2023-03-21T05:35:43.112Z,13.27
2023-03-21T05:38:12.603Z,10.48
2023-03-21T05:40:51.036Z,9.48
2023-03-21T05:43:18.971Z,10.70
2023-03-21T05:45:48.544Z,9.32
2023-03-21T05:48:18.604Z,12.05
2023-03-21T05:50:47.611Z,9.55
2023-03-21T05:53:20.176Z,10.27
2023-03-21T05:55:48.673Z,13.98
2023-03-21T05:58:31.821Z,10.43
2023-03-21T06:00:59.959Z,11.60
2023-03-21T06:03:32.902Z,15.07
2023-03-21T06:06:03.702Z,12.20
2023-03-21T06:08:32.669Z,8.93
2023-03-21T06:11:01.238Z,11.02
2023-03-21T06:13:31.712Z,11.75
2023-03-21T06:15:59.883Z,12.55
2023-03-21T06:18:28.280Z,14.35
2023-03-21T06:21:03.594Z,12.55
2023-03-21T06:23:32.863Z,13.98
2023-03-21T06:26:00.419Z,10.90
2023-03-21T06:28:28.284Z,13.48
2023-03-21T06:30:55.717Z,11.73
2023-03-21T06:33:26.611Z,15.93
2023-03-21T06:35:55.410Z,13.98
2023-03-21T06:38:24.289Z,13.73
2023-03-21T06:40:52.548Z,10.93
2023-03-21T06:43:22.092Z,14.50
2023-03-21T06:45:50.922Z,9.98
2023-03-21T06:48:18.343Z,10.88
2023-03-21T06:50:51.354Z,12.43
2023-03-21T06:53:25.233Z,11.13
2023-03-21T06:56:14.604Z,13.43
2023-03-21T06:58:43.664Z,16.67
2023-03-21T07:01:19.640Z,12.63
2023-03-21T07:03:57.898Z,12.80
2023-03-21T07:06:27.620Z,13.77
2023-03-21T07:08:56.654Z,11.00
2023-03-21T07:11:25.428Z,13.60
2023-03-21T07:13:53.750Z,10.20
2023-03-21T07:16:21.948Z,14.05
2023-03-21T07:18:49.343Z,14.27
2023-03-21T07:21:17.324Z,10.00
2023-03-21T07:23:45.596Z,9.25
2023-03-21T07:26:13.195Z,16.50
2023-03-21T07:28:41.005Z,10.68
2023-03-21T07:31:09.442Z,13.80
2023-03-21T07:33:36.961Z,10.10
2023-03-21T07:36:04.673Z,9.68
2023-03-21T07:38:32.040Z,11.77
2023-03-21T07:41:00.968Z,12.07
2023-03-21T07:43:31.833Z,13.15
2023-03-21T07:46:00.210Z,12.77
2023-03-21T07:48:28.624Z,13.52
2023-03-21T07:50:56.552Z,14.98
2023-03-21T07:53:23.847Z,11.45
2023-03-21T07:55:54.063Z,11.88
2023-03-21T07:58:21.998Z,11.30
2023-03-21T08:00:49.588Z,14.40
2023-03-21T08:03:16.950Z,13.18
2023-03-21T08:05:45.201Z,14.75
2023-03-21T08:08:12.551Z,11.18
2023-03-21T08:10:40.093Z,16.67
2023-03-21T08:13:07.461Z,14.93
2023-03-21T08:15:34.893Z,14.73
2023-03-21T08:18:02.248Z,14.98
2023-03-21T08:20:29.722Z,11.27
2023-03-21T08:22:57.233Z,13.85
2023-03-21T08:25:24.670Z,12.48
2023-03-21T08:27:52.144Z,15.45
2023-03-21T08:30:22.151Z,14.57
2023-03-21T08:32:49.524Z,13.65
2023-03-21T08:35:18.937Z,17.83
2023-03-21T08:37:46.138Z,12.95
2023-03-21T08:40:17.913Z,13.48
2023-03-21T08:42:46.686Z,14.38
2023-03-21T08:45:15.595Z,13.73
2023-03-21T08:47:43.205Z,14.63
2023-03-21T08:50:14.430Z,19.65
2023-03-21T08:52:41.914Z,16.00
2023-03-21T08:55:10.034Z,17.30
2023-03-21T08:57:37.343Z,15.13
2023-03-21T09:00:12.768Z,14.98
2023-03-21T09:02:41.779Z,13.80
2023-03-21T09:05:12.226Z,20.35
2023-03-21T09:07:41.242Z,17.30
2023-03-21T09:10:20.957Z,23.02
2023-03-21T09:12:52.432Z,16.70
2023-03-21T09:15:22.179Z,16.45
2023-03-21T09:17:53.353Z,14.20
2023-03-21T09:20:26.527Z,12.20
2023-03-21T09:22:54.348Z,13.23
2023-03-21T09:25:21.733Z,15.40
2023-03-21T09:27:49.495Z,16.52
2023-03-21T09:30:20.186Z,12.40
2023-03-21T09:32:49.164Z,14.70
2023-03-21T09:35:19.163Z,11.98
2023-03-21T09:37:48.421Z,13.65
2023-03-21T09:40:20.174Z,12.65
2023-03-21T09:43:00.030Z,12.98
2023-03-21T09:45:38.695Z,11.90
2023-03-21T09:48:15.367Z,11.25
2023-03-21T09:50:43.411Z,14.57
2023-03-21T09:53:21.105Z,15.88
2023-03-21T09:55:48.556Z,18.88
2023-03-21T09:58:26.292Z,11.65
2023-03-21T10:01:02.028Z,15.25
2023-03-21T10:03:35.132Z,14.70
2023-03-21T10:06:11.472Z,12.90
2023-03-21T10:08:41.918Z,12.38
2023-03-21T10:11:18.407Z,11.70
2023-03-21T10:13:51.159Z,12.50
2023-03-21T10:16:25.885Z,10.93
2023-03-21T10:18:55.723Z,13.35
2023-03-21T10:21:56.609Z,13.75
2023-03-21T10:24:17.664Z,13.88
2023-03-21T10:26:47.091Z,10.05
2023-03-21T10:29:17.278Z,15.50
2023-03-21T10:31:46.925Z,10.98
2023-03-21T10:34:19.031Z,13.88
2023-03-21T10:36:46.939Z,12.50
2023-03-21T10:39:27.631Z,12.98
2023-03-21T10:41:55.603Z,12.75
2023-03-21T10:44:30.853Z,18.60
2023-03-21T10:47:01.465Z,12.90
2023-03-21T10:49:40.186Z,12.98
2023-03-21T10:52:11.243Z,10.38
2023-03-21T10:54:38.682Z,9.20
2023-03-21T10:57:09.634Z,13.82
2023-03-21T10:59:41.060Z,12.73
2023-03-21T11:02:19.741Z,12.55
2023-03-21T11:04:48.431Z,14.85
2023-03-21T11:07:16.121Z,9.82
2023-03-21T11:09:47.280Z,11.63
2023-03-21T11:12:17.983Z,14.50
2023-03-21T11:14:48.364Z,11.50
2023-03-21T11:17:21.824Z,14.60
2023-03-21T11:19:52.451Z,10.40
2023-03-21T11:22:23.456Z,10.23
2023-03-21T11:24:54.559Z,11.48
2023-03-21T11:27:21.957Z,8.95
2023-03-21T11:29:52.235Z,12.07
2023-03-21T11:32:25.233Z,10.40
2023-03-21T11:34:59.636Z,13.30
2023-03-21T11:37:32.885Z,11.25
2023-03-21T11:40:04.667Z,12.25
2023-03-21T11:42:39.779Z,11.25
2023-03-21T11:45:14.218Z,13.02
2023-03-21T11:47:41.686Z,11.82
2023-03-21T11:50:16.740Z,9.70
2023-03-21T11:52:49.991Z,13.13
2023-03-21T11:55:26.865Z,9.95
2023-03-21T11:58:13.980Z,18.52
2023-03-21T12:00:47.135Z,13.30
2023-03-21T12:03:48.755Z,8.90
2023-03-21T12:06:25.310Z,8.63
2023-03-21T12:09:02.345Z,14.93
2023-03-21T12:11:40.105Z,14.48
2023-03-21T12:14:16.718Z,14.05
2023-03-21T12:16:53.880Z,12.20
2023-03-21T12:19:45.724Z,15.80
2023-03-21T12:22:21.151Z,14.13
2023-03-21T12:24:55.406Z,15.60
2023-03-21T12:27:32.483Z,12.30
2023-03-21T12:30:24.373Z,14.68
2023-03-21T12:32:55.143Z,16.63
2023-03-21T12:35:29.921Z,11.95
2023-03-21T12:38:04.136Z,14.77
2023-03-21T12:40:44.591Z,11.23
2023-03-21T12:43:15.011Z,9.80
2023-03-21T12:45:47.647Z,12.00
2023-03-21T12:48:21.333Z,8.97
2023-03-21T12:50:53.939Z,10.32
2023-03-21T12:53:43.320Z,10.48
2023-03-21T12:56:15.712Z,11.02
2023-03-21T12:58:48.431Z,9.27
2023-03-21T13:01:18.145Z,11.23
2023-03-21T13:03:52.430Z,11.50
2023-03-21T13:06:24.241Z,11.90
2023-03-21T13:08:58.300Z,8.63
2023-03-21T13:11:29.300Z,10.73
2023-03-21T13:14:00.573Z,10.68
2023-03-21T13:16:35.712Z,13.25
2023-03-21T13:19:27.848Z,9.75
2023-03-21T13:21:59.699Z,8.55
2023-03-21T13:24:29.595Z,9.80
2023-03-21T13:27:01.157Z,11.20
2023-03-21T13:29:33.526Z,8.82
2023-03-21T13:32:10.292Z,8.73
2023-03-21T13:34:40.618Z,10.57
2023-03-21T13:37:16.816Z,7.65
2023-03-21T13:39:47.380Z,6.60
2023-03-21T13:42:20.872Z,8.27
2023-03-21T13:44:54.258Z,10.23
2023-03-21T13:47:39.780Z,9.90
2023-03-21T13:50:10.110Z,6.78
2023-03-21T13:52:37.329Z,8.57
2023-03-21T13:55:14.956Z,7.45
2023-03-21T13:57:42.339Z,7.93
2023-03-21T14:00:13.965Z,7.45
2023-03-21T14:02:54.530Z,12.43
2023-03-21T14:05:24.965Z,9.00
2023-03-21T14:08:06.114Z,6.95
2023-03-21T14:10:43.632Z,6.30
2023-03-21T14:13:16.476Z,7.53
2023-03-21T14:15:55.370Z,8.80
2023-03-21T14:18:34.952Z,5.57
2023-03-21T14:21:23.797Z,8.00
2023-03-21T14:23:56.215Z,5.65
2023-03-21T14:26:25.539Z,7.55
2023-03-21T14:28:53.594Z,5.05
2023-03-21T14:31:21.890Z,3.00
2023-03-21T14:33:54.229Z,3.55
2023-03-21T14:36:25.865Z,3.10
2023-03-21T14:38:58.294Z,4.53
2023-03-21T14:41:28.265Z,3.92
2023-03-21T14:43:58.525Z,4.43
2023-03-21T14:46:26.984Z,3.25
2023-03-21T14:48:54.248Z,7.20
2023-03-21T14:51:23.565Z,3.50
2023-03-21T14:53:50.868Z,3.25
2023-03-21T14:56:23.850Z,4.82
2023-03-21T14:58:53.584Z,3.30
2023-03-21T15:01:29.161Z,5.35
2023-03-21T15:04:00.355Z,3.47
2023-03-21T15:06:27.723Z,2.95
2023-03-21T15:08:58.395Z,2.22
2023-03-21T15:11:28.687Z,5.35
2023-03-21T15:13:56.593Z,3.47
2023-03-21T15:16:24.192Z,4.00
2023-03-21T15:18:52.475Z,4.85
2023-03-21T15:21:27.982Z,4.57
2023-03-21T15:24:00.665Z,3.50
2023-03-21T15:26:31.746Z,6.00
2023-03-21T15:29:00.415Z,3.40
2023-03-21T15:31:31.122Z,4.68
2023-03-21T15:33:58.615Z,4.07
2023-03-21T15:36:29.064Z,4.25
2023-03-21T15:38:56.904Z,3.17
2023-03-21T15:41:29.264Z,4.00
2023-03-21T15:44:01.755Z,6.68
2023-03-21T15:46:32.450Z,8.13
2023-03-21T15:49:02.761Z,5.28
2023-03-21T15:51:32.184Z,8.73
2023-03-21T15:54:00.681Z,9.95
2023-03-21T15:56:34.809Z,6.75
2023-03-21T15:59:03.866Z,4.53
2023-03-21T16:01:38.972Z,6.63
2023-03-21T16:04:10.083Z,7.85
2023-03-21T16:06:39.674Z,8.40
2023-03-21T16:09:14.570Z,7.70
2023-03-21T16:11:44.051Z,5.93
2023-03-21T16:14:11.284Z,8.18
2023-03-21T16:16:38.574Z,5.47
2023-03-21T16:19:07.293Z,11.25
2023-03-21T16:21:38.223Z,6.65
2023-03-21T16:24:08.749Z,8.40
2023-03-21T16:26:43.080Z,7.32
2023-03-21T16:29:13.523Z,9.00
2023-03-21T16:31:40.934Z,6.00
2023-03-21T16:34:08.325Z,6.95
2023-03-21T16:36:38.301Z,8.98
2023-03-21T16:39:14.301Z,7.25
2023-03-21T16:41:41.551Z,11.70
2023-03-21T16:44:08.852Z,8.85
2023-03-21T16:46:36.512Z,11.05
2023-03-21T16:49:03.968Z,12.38
2023-03-21T16:51:34.175Z,8.80
2023-03-21T16:54:01.909Z,4.90
2023-03-21T16:56:34.047Z,7.07
2023-03-21T16:59:01.240Z,7.05
2023-03-21T17:01:30.193Z,6.78
2023-03-21T17:03:58.162Z,7.55
2023-03-21T17:06:27.878Z,8.32
2023-03-21T17:08:58.789Z,5.97
2023-03-21T17:11:31.565Z,12.73
2023-03-21T17:13:58.863Z,8.63
2023-03-21T17:16:27.044Z,7.28
2023-03-21T17:18:55.329Z,8.23
2023-03-21T17:21:25.449Z,6.20
2023-03-21T17:23:53.667Z,7.65
2023-03-21T17:26:24.491Z,6.05
2023-03-21T17:28:54.826Z,8.32
2023-03-21T17:31:24.623Z,6.85
2023-03-21T17:33:54.381Z,7.82
2023-03-21T17:36:31.355Z,8.40
2023-03-21T17:38:59.023Z,9.27
2023-03-21T17:41:26.691Z,6.80
2023-03-21T17:43:56.064Z,5.82
2023-03-21T17:46:25.820Z,6.43
2023-03-21T17:48:53.639Z,9.55
2023-03-21T17:51:23.065Z,8.10
2023-03-21T17:53:51.189Z,7.22
2023-03-21T17:56:23.033Z,7.20
2023-03-21T17:58:50.210Z,9.65
2023-03-21T18:01:17.432Z,5.75
2023-03-21T18:03:44.780Z,7.32
2023-03-21T18:06:16.405Z,6.18
2023-03-21T18:08:44.819Z,6.95
2023-03-21T18:11:13.062Z,6.50
2023-03-21T18:13:42.281Z,7.10
2023-03-21T18:16:14.803Z,8.38
2023-03-21T18:18:42.812Z,7.75
2023-03-21T18:21:10.941Z,7.40
2023-03-21T18:23:39.630Z,7.25
2023-03-21T18:26:08.571Z,7.30
2023-03-21T18:28:39.556Z,11.50
2023-03-21T18:31:15.769Z,8.05
2023-03-21T18:33:47.252Z,7.93
2023-03-21T18:36:24.474Z,7.25
2023-03-21T18:38:52.871Z,8.93
2023-03-21T18:41:21.206Z,9.50
2023-03-21T18:44:15.031Z,9.82
2023-03-21T18:46:37.162Z,10.20
2023-03-21T18:49:42.090Z,7.10
2023-03-21T18:51:52.749Z,9.52
2023-03-21T18:54:20.652Z,7.72
2023-03-21T18:57:34.521Z,6.60
2023-03-21T18:59:39.516Z,9.77
2023-03-21T19:02:07.630Z,8.90
2023-03-21T19:04:37.523Z,9.25
2023-03-21T19:07:05.229Z,9.40
2023-03-21T19:09:52.252Z,10.95
2023-03-21T19:12:21.275Z,9.55
2023-03-21T19:14:48.465Z,7.63
2023-03-21T19:18:07.813Z,8.90
2023-03-21T19:20:04.421Z,11.10
2023-03-21T19:22:31.845Z,10.43
2023-03-21T19:24:59.144Z,9.95
2023-03-21T19:27:27.181Z,11.85
2023-03-21T19:30:10.868Z,10.18
2023-03-21T19:32:41.363Z,7.63
2023-03-21T19:35:09.479Z,11.15
2023-03-21T19:37:36.816Z,11.57
2023-03-21T19:40:06.954Z,10.50
2023-03-21T19:42:36.398Z,8.43
2023-03-21T19:45:05.457Z,10.85
2023-03-21T19:47:32.965Z,8.90
2023-03-21T19:52:47.688Z,9.85
2023-03-21T19:55:15.113Z,11.35
2023-03-21T19:57:42.479Z,9.35
2023-03-21T20:00:11.682Z,13.88
2023-03-21T20:02:39.656Z,10.05
2023-03-21T20:05:07.905Z,10.93
2023-03-21T20:07:35.588Z,10.52
2023-03-21T20:10:02.849Z,8.63
2023-03-21T20:12:32.171Z,8.45
2023-03-21T20:15:12.198Z,7.13
2023-03-21T20:17:44.008Z,7.28
2023-03-21T20:20:15.385Z,10.88
2023-03-21T20:23:05.745Z,7.68
2023-03-21T20:25:32.828Z,8.90
2023-03-21T20:28:15.184Z,7.75
2023-03-21T20:30:47.036Z,8.80
2023-03-21T20:33:14.229Z,9.18
2023-03-21T20:38:31.096Z,11.65
2023-03-21T20:40:59.149Z,7.25
2023-03-21T20:44:14.326Z,11.60
2023-03-21T20:46:16.295Z,14.07
2023-03-21T20:48:43.461Z,12.75
2023-03-21T20:53:59.726Z,17.83
2023-03-21T20:56:27.121Z,18.98
2023-03-21T20:59:11.800Z,15.38
2023-03-21T21:01:43.336Z,20.45
2023-03-21T21:04:11.669Z,21.48
2023-03-21T21:06:39.312Z,19.38
2023-03-21T21:09:06.679Z,18.42
2023-03-21T21:14:21.082Z,16.17
2023-03-21T21:16:48.340Z,15.80
2023-03-21T21:19:21.867Z,12.85
2023-03-21T21:21:49.999Z,15.23
2023-03-21T21:24:17.123Z,16.80
2023-03-21T21:26:46.557Z,18.30
2023-03-21T21:29:16.821Z,18.85
2023-03-21T21:31:46.978Z,15.00
2023-03-21T21:34:15.787Z,15.75
2023-03-21T21:39:09.413Z,17.60
2023-03-21T21:41:36.730Z,14.73
2023-03-21T21:44:03.870Z,14.77
2023-03-21T21:46:31.851Z,18.45
2023-03-21T21:48:59.817Z,17.23
2023-03-21T21:51:27.507Z,18.90
2023-03-21T21:53:56.073Z,20.27
2023-03-21T21:56:24.455Z,17.33
2023-03-21T21:58:53.353Z,19.48
2023-03-21T22:01:21.256Z,21.13
2023-03-21T22:03:48.914Z,20.88
2023-03-21T22:06:16.134Z,18.92
2023-03-21T22:08:46.939Z,21.83
2023-03-21T22:11:16.058Z,23.80
2023-03-21T22:13:43.664Z,22.13
2023-03-21T22:16:11.866Z,18.42
2023-03-21T22:18:39.303Z,23.63
2023-03-21T22:21:07.170Z,17.90
2023-03-21T22:23:34.582Z,20.85
2023-03-21T22:26:02.172Z,26.60
2023-03-21T22:28:29.308Z,20.45
2023-03-21T22:30:56.617Z,23.08
2023-03-21T22:33:24.069Z,21.23
2023-03-21T22:35:52.795Z,23.50
2023-03-21T22:38:24.581Z,16.85
2023-03-21T22:40:57.489Z,20.83
2023-03-21T22:43:24.868Z,22.20
2023-03-21T22:45:52.763Z,19.75
2023-03-21T22:48:21.175Z,20.30
2023-03-21T22:50:48.583Z,12.90
2023-03-21T22:53:15.992Z,17.52
2023-03-21T22:55:43.210Z,15.20
2023-03-21T22:58:10.393Z,25.73
2023-03-21T23:00:38.338Z,24.02
2023-03-21T23:03:06.058Z,19.95
2023-03-21T23:05:33.305Z,17.02
2023-03-21T23:08:00.594Z,24.73
2023-03-21T23:10:27.798Z,22.15
2023-03-21T23:12:55.157Z,18.25
2023-03-21T23:15:22.433Z,15.38
2023-03-21T23:17:49.750Z,20.33
2023-03-21T23:20:17.030Z,18.48
2023-03-21T23:22:44.353Z,22.58
2023-03-21T23:25:12.035Z,20.25
2023-03-21T23:27:39.392Z,17.23
2023-03-21T23:30:07.820Z,16.95
2023-03-21T23:32:35.429Z,18.70
2023-03-21T23:35:02.556Z,10.85
2023-03-21T23:37:33.031Z,12.00
2023-03-21T23:40:00.229Z,15.48
2023-03-21T23:42:30.496Z,19.85
2023-03-21T23:44:58.048Z,13.98
2023-03-21T23:47:25.243Z,13.57
2023-03-21T23:49:52.933Z,13.75
2023-03-21T23:52:20.109Z,17.65
2023-03-21T23:54:47.316Z,11.77
2023-03-21T23:57:14.493Z,12.90
2023-03-21T23:59:41.844Z,14.50
